Terminal Aerodrome Forecast
Issued by NWS Sterling, VA

Home | Current Version | Previous Version | Text Only | Print | Product List | Glossary On
Versions: 1 2 3 4 5 6 7 8 9 10 11 12 13 14 15 16 17 18 19 20 21 22
754
FTUS41 KLWX 122335
TAFDCA
TAF
KDCA 122335Z 1300/1324 16005KT 5SM -SHSN SCT010 BKN040
      TEMPO 1301/1304 2SM -SHSN BKN020
     FM130500 27007KT P6SM SCT045 BKN050
     FM130800 30015G33KT P6SM FEW050 SCT060
     FM131000 31020G40KT P6SM FEW060 SCT100
     FM131800 31019G32KT P6SM FEW045 SCT100=

USA.gov is the U.S. government's official web portal to all federal, state and local government web resources and services.